Time;durP1;ratioP1;P1;durP2;ratioP2;P2;SDS_P1;SDS_P2;PMS_P1;PMS_P2;Temp;Humidity;BMP_temperature;BMP_pressure;BME280_temperature;BME280_humidity;BME280_pressure;Samples;Min_cycle;Max_cycle;Signal;HPM_P1;HPM_P2
2021/01/14 00:02:19;;;;;;;;;;;17.70;57.60;;;;;;5034187;28;19925;-56
2021/01/14 00:04:45;;;;;;;;;;;17.70;57.00;;;;;;5042475;28;19925;-56
2021/01/14 00:07:12;;;;;;;;;;;17.70;57.10;;;;;;5044539;28;19939;-57
2021/01/14 00:09:38;;;;;;;;;;;17.70;57.10;;;;;;5034072;28;20534;-56
2021/01/14 00:12:05;;;;;;;;;;;17.70;57.10;;;;;;5046233;28;19925;-56
2021/01/14 00:14:31;;;;;;;;;;;17.60;56.90;;;;;;5038502;28;20312;-56
2021/01/14 00:16:57;;;;;;;;;;;17.60;57.00;;;;;;5048181;28;19925;-56
2021/01/14 00:19:23;;;;;;;;;;;17.60;56.90;;;;;;5037166;28;19960;-56
2021/01/14 00:21:50;;;;;;;;;;;17.60;57.00;;;;;;5049052;28;20043;-56
2021/01/14 00:24:16;;;;;;;;;;;17.60;57.10;;;;;;5033729;28;19925;-56
2021/01/14 00:26:43;;;;;;;;;;;17.60;57.10;;;;;;5048756;28;19931;-56
2021/01/14 00:29:09;;;;;;;;;;;17.60;57.10;;;;;;5037358;28;20316;-56
2021/01/14 00:31:35;;;;;;;;;;;17.60;57.10;;;;;;5046592;28;19925;-56
2021/01/14 00:34:01;;;;;;;;;;;17.60;57.10;;;;;;5037540;28;19951;-56
2021/01/14 00:36:31;;;;;;;;;;;17.60;57.20;;;;;;5045930;28;19925;-55
2021/01/14 00:38:58;;;;;;;;;;;17.60;57.20;;;;;;5037787;28;20377;-55
2021/01/14 00:41:25;;;;;;;;;;;17.50;57.20;;;;;;5046238;28;20327;-56
2021/01/14 00:43:51;;;;;;;;;;;17.50;57.20;;;;;;5048632;28;20478;-55
2021/01/14 00:46:18;;;;;;;;;;;17.50;57.40;;;;;;5039345;28;19925;-55
2021/01/14 00:48:44;;;;;;;;;;;17.50;57.30;;;;;;5047206;28;19929;-55
2021/01/14 00:51:10;;;;;;;;;;;17.50;57.40;;;;;;5037050;28;19935;-55
2021/01/14 00:53:38;;;;;;;;;;;17.50;57.30;;;;;;5046675;28;20390;-54
2021/01/14 00:56:04;;;;;;;;;;;17.50;57.40;;;;;;5041563;28;20292;-55
2021/01/14 00:58:34;;;;;;;;;;;17.40;57.20;;;;;;5049434;28;19929;-55
2021/01/14 01:01:00;;;;;;;;;;;17.40;57.30;;;;;;5038900;28;19940;-55
2021/01/14 01:03:27;;;;;;;;;;;17.40;57.30;;;;;;5049340;28;19925;-56
2021/01/14 01:05:58;;;;;;;;;;;17.40;57.30;;;;;;5038511;28;19936;-56
2021/01/14 01:08:24;;;;;;;;;;;17.40;57.40;;;;;;5046464;28;19931;-56
2021/01/14 01:10:51;;;;;;;;;;;17.40;57.30;;;;;;5038280;28;20246;-56
2021/01/14 01:13:17;;;;;;;;;;;17.40;57.40;;;;;;5051111;28;19931;-56
2021/01/14 01:15:43;;;;;;;;;;;17.30;58.00;;;;;;5038539;28;19932;-56
2021/01/14 01:18:09;;;;;;;;;;;17.30;57.50;;;;;;5045238;28;19962;-55
2021/01/14 01:20:35;;;;;;;;;;;17.30;57.50;;;;;;5039894;28;19925;-55
2021/01/14 01:23:01;;;;;;;;;;;17.30;57.60;;;;;;5045584;28;19925;-55
2021/01/14 01:25:28;;;;;;;;;;;17.30;57.60;;;;;;5048715;28;19924;-55
2021/01/14 01:27:54;;;;;;;;;;;17.30;57.60;;;;;;5038411;28;19939;-55
2021/01/14 01:30:20;;;;;;;;;;;17.30;57.60;;;;;;5048487;28;19953;-55
2021/01/14 01:32:48;;;;;;;;;;;17.30;57.60;;;;;;5037168;28;20324;-54
2021/01/14 01:35:14;;;;;;;;;;;17.30;57.60;;;;;;5048502;28;19925;-54
2021/01/14 01:37:41;;;;;;;;;;;17.30;57.50;;;;;;5036257;28;19932;-56
2021/01/14 01:40:07;;;;;;;;;;;17.30;57.60;;;;;;5049223;28;19928;-55
2021/01/14 01:42:33;;;;;;;;;;;17.30;57.60;;;;;;5034623;28;20389;-54
2021/01/14 01:45:00;;;;;;;;;;;17.30;57.50;;;;;;5047456;28;19928;-54
2021/01/14 01:47:32;;;;;;;;;;;17.20;57.60;;;;;;5037511;28;19929;-55
2021/01/14 01:50:06;;;;;;;;;;;17.20;57.50;;;;;;5044719;28;19999;-54
2021/01/14 01:52:32;;;;;;;;;;;17.20;57.60;;;;;;5037782;28;19952;-54
2021/01/14 01:54:59;;;;;;;;;;;17.10;57.70;;;;;;5045533;28;19925;-55
2021/01/14 01:57:25;;;;;;;;;;;17.20;57.70;;;;;;5038225;28;19967;-56
2021/01/14 01:59:52;;;;;;;;;;;17.20;57.80;;;;;;5047375;28;20546;-56
2021/01/14 02:02:28;;;;;;;;;;;17.20;57.70;;;;;;5039280;28;20034;-55
2021/01/14 02:04:59;;;;;;;;;;;17.10;57.70;;;;;;5047237;28;20613;-56
2021/01/14 02:07:31;;;;;;;;;;;17.10;57.80;;;;;;5038452;28;19979;-56
2021/01/14 02:09:57;;;;;;;;;;;17.10;57.80;;;;;;5047380;28;19925;-56
2021/01/14 02:12:32;;;;;;;;;;;17.10;57.70;;;;;;5047002;28;20362;-56
2021/01/14 02:14:59;;;;;;;;;;;17.10;57.70;;;;;;5037976;28;19931;-56
2021/01/14 02:17:26;;;;;;;;;;;17.10;57.80;;;;;;5046868;28;19932;-56
2021/01/14 02:19:54;;;;;;;;;;;17.10;57.70;;;;;;5035432;28;20384;-55
2021/01/14 02:22:41;;;;;;;;;;;17.10;57.70;;;;;;5045183;28;19931;-55
2021/01/14 02:25:11;;;;;;;;;;;17.00;57.80;;;;;;5034016;28;19925;-54
2021/01/14 02:27:38;;;;;;;;;;;17.10;57.80;;;;;;5047937;28;19933;-54
2021/01/14 02:30:05;;;;;;;;;;;17.10;57.80;;;;;;5034526;28;20362;-54
2021/01/14 02:32:31;;;;;;;;;;;17.10;57.80;;;;;;5047151;28;19979;-54
2021/01/14 02:34:58;;;;;;;;;;;17.00;57.70;;;;;;5038898;28;20370;-55
2021/01/14 02:37:24;;;;;;;;;;;17.00;57.70;;;;;;5045342;28;19931;-56
2021/01/14 02:39:50;;;;;;;;;;;17.00;57.70;;;;;;5038772;28;19924;-56
2021/01/14 02:42:16;;;;;;;;;;;17.00;57.70;;;;;;5044961;28;19929;-56
2021/01/14 02:44:43;;;;;;;;;;;17.00;57.70;;;;;;5038741;28;19925;-55
2021/01/14 02:47:10;;;;;;;;;;;17.00;57.80;;;;;;5046180;28;20002;-55
2021/01/14 02:49:44;;;;;;;;;;;17.00;57.70;;;;;;5037637;28;19964;-56
2021/01/14 02:52:11;;;;;;;;;;;17.00;57.70;;;;;;5046014;28;19931;-56
2021/01/14 02:54:38;;;;;;;;;;;16.90;57.70;;;;;;5035934;28;19967;-54
2021/01/14 02:57:06;;;;;;;;;;;17.00;57.80;;;;;;5047449;28;20430;-56
2021/01/14 02:59:32;;;;;;;;;;;16.90;57.80;;;;;;5046144;28;19932;-55
2021/01/14 03:01:58;;;;;;;;;;;17.00;57.80;;;;;;5036493;28;19924;-55
2021/01/14 03:04:24;;;;;;;;;;;16.90;57.80;;;;;;5046881;28;20364;-54
2021/01/14 03:06:51;;;;;;;;;;;17.00;57.80;;;;;;5034118;28;19925;-54
2021/01/14 03:09:17;;;;;;;;;;;17.00;57.80;;;;;;5044971;28;19956;-56
2021/01/14 03:11:43;;;;;;;;;;;16.90;57.80;;;;;;5033528;28;20565;-56
2021/01/14 03:14:09;;;;;;;;;;;16.90;57.70;;;;;;5045642;28;19924;-56
2021/01/14 03:16:37;;;;;;;;;;;16.90;57.70;;;;;;5037776;28;19925;-56
2021/01/14 03:19:03;;;;;;;;;;;16.90;57.70;;;;;;5040627;28;20026;-56
2021/01/14 03:21:29;;;;;;;;;;;16.90;57.70;;;;;;5035660;28;19929;-56
2021/01/14 03:23:55;;;;;;;;;;;16.90;57.80;;;;;;5045884;28;19925;-56
2021/01/14 03:26:22;;;;;;;;;;;16.80;57.80;;;;;;5037583;28;19931;-56
2021/01/14 03:28:48;;;;;;;;;;;16.90;57.80;;;;;;5045331;28;19925;-56
2021/01/14 03:31:15;;;;;;;;;;;16.90;57.70;;;;;;5038587;28;19939;-56
2021/01/14 03:33:42;;;;;;;;;;;16.80;57.70;;;;;;5040453;28;20377;-55
2021/01/14 03:36:08;;;;;;;;;;;16.80;57.70;;;;;;5042785;28;19928;-56
2021/01/14 03:38:38;;;;;;;;;;;16.80;57.80;;;;;;5038176;28;19933;-56
2021/01/14 03:41:11;;;;;;;;;;;16.80;57.80;;;;;;5045314;28;19931;-56
2021/01/14 03:43:38;;;;;;;;;;;16.80;57.80;;;;;;5035803;28;19928;-56
2021/01/14 03:46:17;;;;;;;;;;;16.80;57.80;;;;;;5044909;28;20002;-56
2021/01/14 03:48:45;;;;;;;;;;;16.80;57.80;;;;;;5036671;28;20518;-56
2021/01/14 03:51:17;;;;;;;;;;;16.80;57.70;;;;;;5050248;28;19924;-56
2021/01/14 03:53:44;;;;;;;;;;;16.80;57.70;;;;;;5040508;28;19928;-56
2021/01/14 03:56:11;;;;;;;;;;;16.80;57.80;;;;;;5044802;28;19961;-56
2021/01/14 03:58:37;;;;;;;;;;;16.80;57.70;;;;;;5041208;28;20895;-55
2021/01/14 04:01:03;;;;;;;;;;;16.80;57.80;;;;;;5048487;28;19931;-56
2021/01/14 04:03:30;;;;;;;;;;;16.80;57.80;;;;;;5039539;28;19947;-56
2021/01/14 04:05:56;;;;;;;;;;;16.80;57.70;;;;;;5043526;28;20014;-56
2021/01/14 04:08:22;;;;;;;;;;;16.80;57.70;;;;;;5039696;28;19936;-55
2021/01/14 04:10:48;;;;;;;;;;;16.80;57.70;;;;;;5046086;28;19924;-56
2021/01/14 04:13:15;;;;;;;;;;;16.70;57.70;;;;;;5039473;28;19939;-56
2021/01/14 04:15:41;;;;;;;;;;;16.70;57.70;;;;;;5047487;28;19936;-56
2021/01/14 04:18:07;;;;;;;;;;;16.70;57.70;;;;;;5039466;28;19925;-56
2021/01/14 04:20:34;;;;;;;;;;;16.70;57.70;;;;;;5044026;28;20278;-55
2021/01/14 04:23:00;;;;;;;;;;;16.70;57.70;;;;;;5046863;28;19933;-56
2021/01/14 04:25:33;;;;;;;;;;;16.70;57.60;;;;;;5038714;28;19947;-56
2021/01/14 04:28:00;;;;;;;;;;;16.70;58.20;;;;;;5048294;28;19992;-56
2021/01/14 04:30:27;;;;;;;;;;;16.70;57.60;;;;;;5037885;28;20346;-56
2021/01/14 04:33:12;;;;;;;;;;;16.70;57.60;;;;;;5045791;28;19925;-56
2021/01/14 04:35:42;;;;;;;;;;;16.70;57.60;;;;;;5041152;28;19975;-56
2021/01/14 04:38:09;;;;;;;;;;;16.70;57.50;;;;;;5046635;28;20322;-56
2021/01/14 04:40:35;;;;;;;;;;;16.70;57.60;;;;;;5038904;28;19933;-55
2021/01/14 04:43:02;;;;;;;;;;;16.70;57.60;;;;;;5048194;28;20406;-56
2021/01/14 04:45:28;;;;;;;;;;;16.70;57.60;;;;;;5036520;28;19925;-56
2021/01/14 04:47:55;;;;;;;;;;;16.60;57.60;;;;;;5048558;28;19932;-55
2021/01/14 04:50:21;;;;;;;;;;;16.60;57.50;;;;;;5037297;28;20381;-56
2021/01/14 04:52:48;;;;;;;;;;;16.60;57.50;;;;;;5049259;28;20392;-55
2021/01/14 04:55:16;;;;;;;;;;;16.60;57.60;;;;;;5037780;28;20391;-56
2021/01/14 04:57:43;;;;;;;;;;;16.60;57.50;;;;;;5043184;28;19948;-55
2021/01/14 05:00:13;;;;;;;;;;;16.60;57.60;;;;;;5021941;28;20292;-56
2021/01/14 05:02:58;;;;;;;;;;;16.70;57.50;;;;;;5045986;28;20332;-56
2021/01/14 05:05:25;;;;;;;;;;;16.60;57.50;;;;;;5040560;28;19963;-56
2021/01/14 05:08:05;;;;;;;;;;;16.60;57.50;;;;;;5047078;28;19925;-56
2021/01/14 05:10:33;;;;;;;;;;;16.60;57.50;;;;;;5037982;28;20580;-53
2021/01/14 05:12:59;;;;;;;;;;;16.60;57.50;;;;;;5049715;28;19940;-56
2021/01/14 05:15:29;;;;;;;;;;;16.60;57.60;;;;;;5031932;28;20273;-55
2021/01/14 05:17:55;;;;;;;;;;;16.60;57.50;;;;;;5049611;28;20102;-55
2021/01/14 05:20:22;;;;;;;;;;;16.60;57.50;;;;;;5042166;28;20512;-55
2021/01/14 05:22:51;;;;;;;;;;;16.60;57.50;;;;;;5037854;28;20414;-56
2021/01/14 05:25:17;;;;;;;;;;;16.60;57.50;;;;;;5047427;28;20434;-54
2021/01/14 05:27:43;;;;;;;;;;;16.60;57.40;;;;;;5039074;28;19925;-54
2021/01/14 05:30:10;;;;;;;;;;;16.60;57.40;;;;;;5045067;28;19964;-56
2021/01/14 05:32:38;;;;;;;;;;;16.60;57.40;;;;;;5037385;28;19936;-56
2021/01/14 05:35:08;;;;;;;;;;;16.60;57.30;;;;;;5044639;28;19932;-55
2021/01/14 05:37:35;;;;;;;;;;;16.60;57.30;;;;;;5039232;28;19929;-55
2021/01/14 05:40:03;;;;;;;;;;;16.50;57.30;;;;;;5043839;28;19975;-55
2021/01/14 05:42:29;;;;;;;;;;;16.50;57.30;;;;;;5039301;28;19935;-55
2021/01/14 05:44:55;;;;;;;;;;;16.60;57.20;;;;;;5045512;28;19933;-55
2021/01/14 05:47:22;;;;;;;;;;;16.50;57.20;;;;;;5036345;28;20442;-55
2021/01/14 05:50:03;;;;;;;;;;;16.50;57.20;;;;;;5043212;28;19933;-54
2021/01/14 05:52:31;;;;;;;;;;;16.50;57.20;;;;;;5038200;28;20014;-54
2021/01/14 05:55:04;;;;;;;;;;;16.50;57.20;;;;;;5043595;28;19925;-55
2021/01/14 05:57:31;;;;;;;;;;;16.50;57.20;;;;;;5036632;28;20408;-55
2021/01/14 05:59:59;;;;;;;;;;;16.50;57.20;;;;;;5046814;28;19925;-55
2021/01/14 06:02:29;;;;;;;;;;;16.50;57.10;;;;;;5038269;28;20613;-55
2021/01/14 06:04:55;;;;;;;;;;;16.50;57.00;;;;;;5047305;28;19932;-55
2021/01/14 06:07:24;;;;;;;;;;;16.50;57.00;;;;;;5045812;28;19928;-54
2021/01/14 06:09:50;;;;;;;;;;;16.60;57.00;;;;;;5041008;28;19940;-54
2021/01/14 06:12:16;;;;;;;;;;;16.50;57.00;;;;;;5047301;28;19925;-56
2021/01/14 06:14:43;;;;;;;;;;;16.50;57.00;;;;;;5038664;28;19940;-55
2021/01/14 06:17:10;;;;;;;;;;;16.50;57.00;;;;;;5043032;28;20289;-55
2021/01/14 06:19:36;;;;;;;;;;;16.50;57.00;;;;;;5036008;28;20002;-56
2021/01/14 06:22:03;;;;;;;;;;;16.50;57.00;;;;;;5044451;28;19932;-56
2021/01/14 06:24:37;;;;;;;;;;;16.50;57.00;;;;;;5036020;28;19928;-56
2021/01/14 06:27:06;;;;;;;;;;;16.50;57.00;;;;;;5044212;28;19925;-54
2021/01/14 06:29:34;;;;;;;;;;;16.50;57.00;;;;;;5038079;28;20404;-54
2021/01/14 06:32:09;;;;;;;;;;;16.50;56.90;;;;;;5043108;28;19929;-54
2021/01/14 06:34:37;;;;;;;;;;;16.50;56.90;;;;;;5037612;28;19933;-54
2021/01/14 06:37:13;;;;;;;;;;;16.50;56.80;;;;;;5043960;28;20292;-54
2021/01/14 06:39:41;;;;;;;;;;;16.50;56.80;;;;;;5039443;28;20668;-55
2021/01/14 06:42:21;;;;;;;;;;;16.40;56.70;;;;;;5044258;28;20350;-54
2021/01/14 06:44:53;;;;;;;;;;;16.50;56.60;;;;;;5035833;28;19931;-54
2021/01/14 06:47:28;;;;;;;;;;;16.50;57.60;;;;;;5037257;28;19932;-53
2021/01/14 06:50:00;;;;;;;;;;;16.50;57.20;;;;;;5029389;28;19954;-55
2021/01/14 06:52:27;;;;;;;;;;;16.50;57.40;;;;;;5036845;28;19932;-55
2021/01/14 06:54:53;;;;;;;;;;;16.50;57.70;;;;;;5029578;28;19925;-55
2021/01/14 06:57:23;;;;;;;;;;;16.50;57.70;;;;;;5048461;28;19933;-54
2021/01/14 06:59:52;;;;;;;;;;;16.40;57.40;;;;;;5038367;28;19935;-55
2021/01/14 07:02:30;;;;;;;;;;;16.50;57.40;;;;;;5045136;28;19940;-54
2021/01/14 07:05:01;;;;;;;;;;;16.40;57.30;;;;;;5037043;28;19925;-54
2021/01/14 07:07:27;;;;;;;;;;;16.50;57.20;;;;;;5047091;28;19925;-54
2021/01/14 07:10:03;;;;;;;;;;;16.40;57.10;;;;;;5047309;28;20494;-55
2021/01/14 07:12:31;;;;;;;;;;;16.50;57.10;;;;;;5040973;28;20351;-55
2021/01/14 07:15:01;;;;;;;;;;;16.50;57.00;;;;;;5046866;28;19924;-54
2021/01/14 07:17:31;;;;;;;;;;;16.50;57.00;;;;;;5034780;28;19931;-55
2021/01/14 07:19:59;;;;;;;;;;;16.50;56.80;;;;;;5046647;28;20373;-55
2021/01/14 07:22:25;;;;;;;;;;;16.50;56.70;;;;;;5041738;28;19928;-56
2021/01/14 07:24:52;;;;;;;;;;;16.50;56.70;;;;;;5042572;28;19932;-54
2021/01/14 07:27:19;;;;;;;;;;;16.50;56.60;;;;;;5055098;28;20011;-53
2021/01/14 07:29:45;;;;;;;;;;;16.50;56.60;;;;;;5048778;28;19924;-56
2021/01/14 07:32:11;;;;;;;;;;;16.50;56.90;;;;;;5052491;28;20044;-55
2021/01/14 07:34:40;;;;;;;;;;;17.10;55.90;;;;;;5047197;28;19972;-56
2021/01/14 07:37:19;;;;;;;;;;;17.50;55.50;;;;;;5041089;28;20445;-55
2021/01/14 07:39:45;;;;;;;;;;;17.80;54.60;;;;;;5047229;28;19924;-57
2021/01/14 07:42:25;;;;;;;;;;;17.90;54.00;;;;;;5045390;28;19951;-59
2021/01/14 07:45:01;;;;;;;;;;;18.10;53.70;;;;;;5048260;28;19933;-57
2021/01/14 07:47:30;;;;;;;;;;;18.50;54.00;;;;;;5040179;28;19932;-58
2021/01/14 07:50:36;;;;;;;;;;;18.80;53.50;;;;;;5047783;28;19979;-61
2021/01/14 07:53:12;;;;;;;;;;;19.10;52.80;;;;;;4996987;28;19933;-59
2021/01/14 07:55:39;;;;;;;;;;;19.40;52.80;;;;;;5009737;28;20035;-59
2021/01/14 07:58:11;;;;;;;;;;;19.70;52.00;;;;;;5022468;28;20297;-60
2021/01/14 08:00:39;;;;;;;;;;;19.80;51.60;;;;;;5050111;28;20019;-56
2021/01/14 08:03:08;;;;;;;;;;;20.00;51.10;;;;;;5050951;28;19924;-59
2021/01/14 08:05:57;;;;;;;;;;;20.40;50.50;;;;;;5049244;28;20346;-59
2021/01/14 08:08:30;;;;;;;;;;;20.80;50.00;;;;;;5029112;28;19932;-59
2021/01/14 08:11:19;;;;;;;;;;;20.90;49.30;;;;;;5047433;28;19932;-61
2021/01/14 08:14:04;;;;;;;;;;;21.10;49.00;;;;;;5038490;28;19931;-60
2021/01/14 08:16:42;;;;;;;;;;;21.30;48.70;;;;;;5046272;28;19939;-59
2021/01/14 08:19:23;;;;;;;;;;;21.50;48.20;;;;;;5039465;28;19940;-60
2021/01/14 08:21:58;;;;;;;;;;;21.70;47.90;;;;;;5045902;28;19925;-60
2021/01/14 08:24:33;;;;;;;;;;;21.90;47.40;;;;;;5041463;28;19970;-63
2021/01/14 08:27:02;;;;;;;;;;;22.10;47.10;;;;;;5048265;28;20596;-61
2021/01/14 08:29:29;;;;;;;;;;;22.20;46.80;;;;;;5038358;28;19925;-64
2021/01/14 08:31:55;;;;;;;;;;;22.40;46.60;;;;;;5046573;28;19928;-59
2021/01/14 08:34:47;;;;;;;;;;;22.50;46.60;;;;;;5038183;28;20611;-59
2021/01/14 08:37:14;;;;;;;;;;;22.60;46.40;;;;;;5046987;28;19925;-61
2021/01/14 08:39:41;;;;;;;;;;;22.70;46.10;;;;;;5018258;28;19933;-59
2021/01/14 08:42:10;;;;;;;;;;;22.80;46.00;;;;;;5050272;28;20472;-61
2021/01/14 08:44:38;;;;;;;;;;;23.00;45.70;;;;;;5035888;28;20022;-60
2021/01/14 08:47:04;;;;;;;;;;;23.10;45.20;;;;;;5048014;28;19932;-60
2021/01/14 08:49:37;;;;;;;;;;;23.20;45.00;;;;;;5036808;28;19968;-60
2021/01/14 08:52:03;;;;;;;;;;;23.30;44.80;;;;;;5045441;28;19931;-60
2021/01/14 08:54:40;;;;;;;;;;;23.30;44.70;;;;;;5034659;28;20385;-59
2021/01/14 08:57:07;;;;;;;;;;;23.40;44.60;;;;;;5048503;28;19924;-59
2021/01/14 08:59:33;;;;;;;;;;;23.50;44.60;;;;;;5045565;28;19936;-60
2021/01/14 09:01:59;;;;;;;;;;;23.60;45.10;;;;;;5036386;28;19928;-59
2021/01/14 09:04:25;;;;;;;;;;;23.60;44.50;;;;;;5038041;28;19933;-59
2021/01/14 09:06:54;;;;;;;;;;;23.70;44.30;;;;;;5035303;28;20385;-61
2021/01/14 09:09:20;;;;;;;;;;;23.80;44.30;;;;;;5045386;28;19928;-59
2021/01/14 09:11:49;;;;;;;;;;;23.90;44.20;;;;;;5035494;28;19933;-59
2021/01/14 09:14:16;;;;;;;;;;;23.90;44.10;;;;;;5044609;28;20423;-59
2021/01/14 09:16:44;;;;;;;;;;;24.00;44.00;;;;;;5034455;28;19956;-59
2021/01/14 09:19:14;;;;;;;;;;;24.10;43.90;;;;;;5047230;28;19929;-62
2021/01/14 09:21:40;;;;;;;;;;;24.20;43.80;;;;;;5035241;28;20284;-61
2021/01/14 09:24:07;;;;;;;;;;;24.20;44.00;;;;;;5040812;28;20534;-58
2021/01/14 09:26:34;;;;;;;;;;;24.30;44.10;;;;;;5026137;28;19932;-63
2021/01/14 09:29:00;;;;;;;;;;;24.40;43.50;;;;;;5046635;28;19933;-59
2021/01/14 09:31:28;;;;;;;;;;;24.40;43.30;;;;;;5036161;28;20075;-57
2021/01/14 09:33:56;;;;;;;;;;;24.50;43.30;;;;;;5040208;28;20597;-59
2021/01/14 09:36:22;;;;;;;;;;;24.60;43.40;;;;;;5038186;28;19935;-60
2021/01/14 09:38:53;;;;;;;;;;;24.70;43.40;;;;;;5040175;28;20504;-60
2021/01/14 09:41:24;;;;;;;;;;;24.80;43.40;;;;;;5045307;28;19952;-60
2021/01/14 09:43:52;;;;;;;;;;;24.90;43.50;;;;;;5042223;28;19928;-57
2021/01/14 09:46:20;;;;;;;;;;;25.00;42.90;;;;;;5044569;28;19939;-58
2021/01/14 09:48:46;;;;;;;;;;;25.00;43.10;;;;;;5037313;28;20411;-58
2021/01/14 09:51:13;;;;;;;;;;;25.00;43.30;;;;;;5046092;28;19955;-59
2021/01/14 09:53:43;;;;;;;;;;;25.10;42.90;;;;;;5037802;28;19933;-59
2021/01/14 09:56:11;;;;;;;;;;;25.10;42.90;;;;;;5046291;28;19963;-60
2021/01/14 09:58:39;;;;;;;;;;;25.10;42.90;;;;;;5021868;28;19936;-58
2021/01/14 10:01:07;;;;;;;;;;;25.20;42.90;;;;;;5044160;28;20022;-60
2021/01/14 10:03:33;;;;;;;;;;;25.40;42.80;;;;;;5031593;28;20111;-58
2021/01/14 10:06:01;;;;;;;;;;;25.30;42.70;;;;;;5043190;28;19935;-58
2021/01/14 10:08:28;;;;;;;;;;;25.40;42.90;;;;;;5035380;28;20035;-57
2021/01/14 10:10:55;;;;;;;;;;;25.40;42.40;;;;;;5042647;28;19932;-61
2021/01/14 10:13:21;;;;;;;;;;;25.50;42.60;;;;;;5037673;28;20553;-61
2021/01/14 10:15:47;;;;;;;;;;;25.50;42.80;;;;;;5042192;28;19925;-60
2021/01/14 10:18:23;;;;;;;;;;;25.50;42.40;;;;;;5039618;28;21207;-60
2021/01/14 10:20:56;;;;;;;;;;;25.60;42.90;;;;;;5042942;28;19947;-58
2021/01/14 10:23:24;;;;;;;;;;;25.60;42.20;;;;;;5036997;28;20349;-59
2021/01/14 10:25:51;;;;;;;;;;;25.70;42.20;;;;;;5041773;28;19928;-59
2021/01/14 10:28:17;;;;;;;;;;;25.70;42.50;;;;;;5049354;28;19978;-57
2021/01/14 10:30:43;;;;;;;;;;;25.90;42.30;;;;;;5034581;28;19968;-59
2021/01/14 10:33:10;;;;;;;;;;;25.90;42.50;;;;;;5044781;28;20411;-58
2021/01/14 10:35:37;;;;;;;;;;;26.00;42.00;;;;;;5034963;28;19928;-59
2021/01/14 10:38:07;;;;;;;;;;;26.10;42.20;;;;;;5044319;28;20041;-59
2021/01/14 10:40:35;;;;;;;;;;;26.10;41.70;;;;;;5031528;28;19951;-58
2021/01/14 10:43:02;;;;;;;;;;;26.20;41.70;;;;;;5044086;28;19925;-61
2021/01/14 10:45:29;;;;;;;;;;;26.20;41.70;;;;;;5033427;28;19933;-60
2021/01/14 10:48:04;;;;;;;;;;;26.20;41.50;;;;;;5043032;28;19937;-60
2021/01/14 10:50:31;;;;;;;;;;;26.20;41.50;;;;;;5036241;28;19940;-60
2021/01/14 10:53:06;;;;;;;;;;;26.30;41.70;;;;;;5040562;28;19939;-62
2021/01/14 10:55:33;;;;;;;;;;;26.30;41.40;;;;;;5038512;28;20010;-59
2021/01/14 10:58:03;;;;;;;;;;;26.40;41.70;;;;;;5043903;28;19925;-58
2021/01/14 11:00:32;;;;;;;;;;;26.50;41.40;;;;;;5033533;28;20378;-61
2021/01/14 11:03:02;;;;;;;;;;;26.60;41.30;;;;;;5038341;28;19924;-59
2021/01/14 11:05:58;;;;;;;;;;;26.60;41.20;;;;;;5031866;28;19931;-61
2021/01/14 11:08:25;;;;;;;;;;;26.70;41.20;;;;;;5028681;28;19933;-61
2021/01/14 11:11:04;;;;;;;;;;;26.80;41.20;;;;;;5030058;28;19932;-61
2021/01/14 11:13:46;;;;;;;;;;;26.80;41.40;;;;;;5040366;28;19929;-60
2021/01/14 11:16:13;;;;;;;;;;;26.80;41.20;;;;;;5023746;28;20351;-60
2021/01/14 11:18:40;;;;;;;;;;;26.80;40.70;;;;;;5039291;28;19944;-61
2021/01/14 11:21:07;;;;;;;;;;;26.90;40.90;;;;;;5033947;28;19931;-59
2021/01/14 11:23:34;;;;;;;;;;;26.90;40.80;;;;;;5045868;28;19928;-59
2021/01/14 11:26:03;;;;;;;;;;;26.90;40.60;;;;;;5035061;28;19976;-59
2021/01/14 11:28:30;;;;;;;;;;;26.90;40.60;;;;;;5046240;28;19925;-61
2021/01/14 11:31:00;;;;;;;;;;;26.90;40.70;;;;;;5038752;28;19966;-60
2021/01/14 11:33:27;;;;;;;;;;;26.90;40.50;;;;;;5040716;28;19979;-58
2021/01/14 11:35:53;;;;;;;;;;;26.90;40.40;;;;;;5039016;28;19931;-60
2021/01/14 11:38:20;;;;;;;;;;;27.00;40.40;;;;;;5037947;28;19925;-60
2021/01/14 11:40:47;;;;;;;;;;;27.00;40.30;;;;;;5044258;28;19925;-59
2021/01/14 11:43:13;;;;;;;;;;;27.10;40.20;;;;;;5034546;28;20320;-59
2021/01/14 11:45:40;;;;;;;;;;;27.10;40.40;;;;;;5042687;28;19929;-62
2021/01/14 11:48:06;;;;;;;;;;;27.10;40.20;;;;;;5019251;28;20457;-59
2021/01/14 11:50:33;;;;;;;;;;;27.20;40.70;;;;;;5024833;28;19932;-60
2021/01/14 11:52:59;;;;;;;;;;;27.20;40.30;;;;;;5032577;28;19932;-61
2021/01/14 11:55:25;;;;;;;;;;;27.40;40.00;;;;;;5037013;28;19929;-59
2021/01/14 11:57:54;;;;;;;;;;;27.40;39.90;;;;;;5034923;28;19933;-55
2021/01/14 12:00:21;;;;;;;;;;;26.40;38.80;;;;;;5042827;28;19937;-54
2021/01/14 12:02:47;;;;;;;;;;;25.50;40.80;;;;;;5034620;28;20369;-55
2021/01/14 12:05:13;;;;;;;;;;;25.10;41.60;;;;;;5044641;28;19931;-55
2021/01/14 12:07:39;;;;;;;;;;;24.90;42.20;;;;;;5037411;28;20278;-55
2021/01/14 12:10:06;;;;;;;;;;;24.80;42.40;;;;;;5046190;28;20587;-55
2021/01/14 12:12:33;;;;;;;;;;;24.70;42.20;;;;;;5043710;28;19932;-58
2021/01/14 12:15:01;;;;;;;;;;;24.60;43.00;;;;;;5038430;28;19925;-56
2021/01/14 12:17:27;;;;;;;;;;;24.50;43.20;;;;;;5047516;28;19925;-58
2021/01/14 12:19:53;;;;;;;;;;;24.50;43.20;;;;;;5037747;28;19947;-58
2021/01/14 12:22:19;;;;;;;;;;;24.80;43.40;;;;;;5046500;28;20305;-59
2021/01/14 12:24:46;;;;;;;;;;;25.40;42.50;;;;;;5032964;28;19935;-58
2021/01/14 12:27:12;;;;;;;;;;;26.00;41.50;;;;;;5047504;28;19935;-58
2021/01/14 12:29:38;;;;;;;;;;;26.20;41.00;;;;;;5046616;28;19936;-60
2021/01/14 12:32:04;;;;;;;;;;;26.30;40.70;;;;;;5048992;28;20422;-59
2021/01/14 12:34:31;;;;;;;;;;;26.50;40.90;;;;;;5037477;28;19933;-59
2021/01/14 12:36:57;;;;;;;;;;;26.60;40.50;;;;;;5050774;28;19978;-57
2021/01/14 12:39:24;;;;;;;;;;;26.70;40.40;;;;;;5051425;28;20022;-58
2021/01/14 12:41:51;;;;;;;;;;;26.80;40.30;;;;;;5051189;28;19935;-56
2021/01/14 12:44:17;;;;;;;;;;;26.90;40.30;;;;;;5038775;28;19940;-56
2021/01/14 12:46:48;;;;;;;;;;;26.30;40.00;;;;;;5046582;28;19932;-56
2021/01/14 12:49:15;;;;;;;;;;;25.60;41.10;;;;;;5041046;28;20366;-57
2021/01/14 12:51:42;;;;;;;;;;;25.20;41.80;;;;;;5040509;28;19933;-58
2021/01/14 12:54:08;;;;;;;;;;;24.90;43.50;;;;;;5042622;28;19939;-57
2021/01/14 12:56:35;;;;;;;;;;;24.80;43.50;;;;;;5033055;28;20616;-57
2021/01/14 12:59:02;;;;;;;;;;;24.70;43.90;;;;;;5044437;28;19935;-59
2021/01/14 13:01:35;;;;;;;;;;;24.60;44.30;;;;;;5037188;28;19982;-56
2021/01/14 13:04:02;;;;;;;;;;;24.50;44.10;;;;;;5044879;28;19979;-58
2021/01/14 13:06:29;;;;;;;;;;;24.40;45.50;;;;;;5038819;28;19924;-58
2021/01/14 13:08:56;;;;;;;;;;;24.30;45.40;;;;;;5047767;28;19936;-57
2021/01/14 13:11:23;;;;;;;;;;;24.30;45.70;;;;;;5037787;28;19931;-56
2021/01/14 13:13:50;;;;;;;;;;;24.20;45.90;;;;;;5042984;28;20411;-59
2021/01/14 13:16:17;;;;;;;;;;;24.10;45.80;;;;;;5037253;28;19931;-59
2021/01/14 13:18:43;;;;;;;;;;;24.10;45.80;;;;;;5045815;28;19935;-57
2021/01/14 13:21:09;;;;;;;;;;;24.00;45.80;;;;;;5036053;28;20016;-58
2021/01/14 13:23:35;;;;;;;;;;;24.00;45.50;;;;;;5041478;28;19936;-60
2021/01/14 13:26:06;;;;;;;;;;;24.00;46.10;;;;;;5036170;28;19979;-58
2021/01/14 13:28:32;;;;;;;;;;;23.90;46.00;;;;;;5046697;28;19952;-58
2021/01/14 13:30:59;;;;;;;;;;;23.90;46.00;;;;;;5041385;28;19976;-57
2021/01/14 13:33:25;;;;;;;;;;;23.80;46.00;;;;;;5040901;28;19956;-59
2021/01/14 13:35:55;;;;;;;;;;;23.80;45.50;;;;;;5043672;28;19971;-59
2021/01/14 13:38:21;;;;;;;;;;;23.80;46.40;;;;;;5034515;28;19944;-59
2021/01/14 13:40:48;;;;;;;;;;;23.70;45.60;;;;;;5044102;28;20386;-56
2021/01/14 13:43:14;;;;;;;;;;;23.70;46.10;;;;;;5035819;28;19933;-59
2021/01/14 13:45:40;;;;;;;;;;;23.60;45.90;;;;;;5043026;28;19963;-58
2021/01/14 13:48:07;;;;;;;;;;;23.60;46.80;;;;;;5036263;28;20422;-58
2021/01/14 13:50:37;;;;;;;;;;;23.60;46.20;;;;;;5045810;28;19932;-58
2021/01/14 13:53:04;;;;;;;;;;;23.50;45.40;;;;;;5035579;28;19932;-56
2021/01/14 13:55:30;;;;;;;;;;;23.50;45.40;;;;;;5040896;28;19925;-59
2021/01/14 13:57:57;;;;;;;;;;;23.50;45.60;;;;;;5035442;28;19978;-58
2021/01/14 14:00:23;;;;;;;;;;;23.40;46.30;;;;;;5041948;28;19925;-58
2021/01/14 14:02:49;;;;;;;;;;;23.30;45.90;;;;;;5032756;28;19955;-56
2021/01/14 14:05:16;;;;;;;;;;;23.30;46.50;;;;;;5043217;28;19933;-56
2021/01/14 14:07:44;;;;;;;;;;;23.30;47.10;;;;;;5029978;28;19929;-57
2021/01/14 14:10:10;;;;;;;;;;;23.30;46.50;;;;;;5044296;28;19933;-60
2021/01/14 14:12:38;;;;;;;;;;;23.20;46.70;;;;;;5039879;28;19991;-58
2021/01/14 14:15:05;;;;;;;;;;;23.10;45.00;;;;;;5039606;28;19925;-56
2021/01/14 14:17:31;;;;;;;;;;;22.20;47.20;;;;;;5043853;28;19928;-56
2021/01/14 14:19:58;;;;;;;;;;;21.90;49.70;;;;;;5036401;28;20384;-56
2021/01/14 14:22:24;;;;;;;;;;;21.70;50.30;;;;;;5042722;28;19925;-56
2021/01/14 14:24:50;;;;;;;;;;;21.50;50.50;;;;;;5037666;28;19936;-57